createdAt,value
2022-11-08T00:01:58.403Z,9.40
2022-11-08T00:04:28.987Z,9.50
2022-11-08T00:07:11.397Z,9.50
2022-11-08T00:09:54.120Z,9.40
2022-11-08T00:12:36.561Z,9.30
2022-11-08T00:15:08.408Z,9.30
2022-11-08T00:17:40.999Z,9.30
2022-11-08T00:20:12.995Z,9.30
2022-11-08T00:22:44.404Z,9.60
2022-11-08T00:25:15.265Z,9.40
2022-11-08T00:27:45.613Z,9.40
2022-11-08T00:30:15.886Z,9.40
2022-11-08T00:32:49.205Z,9.40
2022-11-08T00:35:19.482Z,9.30
2022-11-08T00:37:50.397Z,9.40
2022-11-08T00:40:20.298Z,9.30
2022-11-08T00:42:50.876Z,9.30
2022-11-08T00:45:20.974Z,9.20
2022-11-08T00:47:53.953Z,9.20
2022-11-08T00:50:26.446Z,9.30
2022-11-08T00:52:56.769Z,9.20
2022-11-08T00:55:29.545Z,9.20
2022-11-08T00:58:00.665Z,9.20
2022-11-08T01:00:31.415Z,9.20
2022-11-08T01:03:17.148Z,9.20
2022-11-08T01:05:47.586Z,9.10
2022-11-08T01:08:18.673Z,9.40
2022-11-08T01:10:51.169Z,9.20
2022-11-08T01:13:22.579Z,9.10
2022-11-08T01:15:54.629Z,9.10
2022-11-08T01:18:28.344Z,9.10
2022-11-08T01:20:58.295Z,9.30
2022-11-08T01:23:28.255Z,9.10
2022-11-08T01:25:58.494Z,9.00
2022-11-08T01:28:28.808Z,9.10
2022-11-08T01:30:58.738Z,9.00
2022-11-08T01:33:32.154Z,9.00
2022-11-08T01:36:02.112Z,9.00
2022-11-08T01:38:32.358Z,9.30
2022-11-08T01:41:02.316Z,8.90
2022-11-08T01:43:43.300Z,9.00
2022-11-08T01:46:35.572Z,9.00
2022-11-08T01:49:38.163Z,9.00
2022-11-08T01:52:26.133Z,9.30
2022-11-08T01:55:03.527Z,9.20
2022-11-08T01:57:39.139Z,9.00
2022-11-08T02:00:14.486Z,9.00
2022-11-08T02:02:46.640Z,9.00
2022-11-08T02:05:29.596Z,9.00
2022-11-08T02:08:06.080Z,9.00
2022-11-08T02:13:22.023Z,9.00
2022-11-08T02:15:52.616Z,9.30
2022-11-08T02:18:26.417Z,9.10
2022-11-08T02:21:03.702Z,9.10
2022-11-08T02:23:46.929Z,9.00
2022-11-08T02:26:17.994Z,9.00
2022-11-08T02:28:50.832Z,9.00
2022-11-08T02:31:24.644Z,9.00
2022-11-08T02:33:56.300Z,9.00
2022-11-08T02:36:27.821Z,9.00
2022-11-08T02:39:00.933Z,9.30
2022-11-08T02:41:30.844Z,9.20
2022-11-08T02:44:01.536Z,9.10
2022-11-08T02:46:31.666Z,9.10
2022-11-08T02:49:08.490Z,9.10
2022-11-08T02:51:38.489Z,9.10
2022-11-08T02:54:11.771Z,9.30
2022-11-08T02:56:42.125Z,9.10
2022-11-08T02:59:12.744Z,9.10
2022-11-08T03:01:43.349Z,9.30
2022-11-08T03:04:13.589Z,9.10
2022-11-08T03:06:43.524Z,9.30
2022-11-08T03:09:16.353Z,9.00
2022-11-08T03:11:46.283Z,9.20
2022-11-08T03:14:16.813Z,8.90
2022-11-08T03:16:47.671Z,8.90
2022-11-08T03:19:17.748Z,8.90
2022-11-08T03:21:47.691Z,8.90
2022-11-08T03:24:20.646Z,8.90
2022-11-08T03:26:50.551Z,8.90
2022-11-08T03:29:21.503Z,8.70
2022-11-08T03:31:51.467Z,8.70
2022-11-08T03:34:21.960Z,8.60
2022-11-08T03:36:51.887Z,8.60
2022-11-08T03:39:24.654Z,8.80
2022-11-08T03:41:54.655Z,8.70
2022-11-08T03:44:25.138Z,8.90
2022-11-08T03:46:55.549Z,8.70
2022-11-08T03:49:26.987Z,8.60
2022-11-08T03:51:57.551Z,8.60
2022-11-08T03:54:31.300Z,8.60
2022-11-08T03:57:01.434Z,8.40
2022-11-08T03:59:31.793Z,8.60
2022-11-08T04:02:01.819Z,8.40
2022-11-08T04:04:31.833Z,8.70
2022-11-08T04:07:02.354Z,8.60
2022-11-08T04:09:35.376Z,8.50
2022-11-08T04:12:17.909Z,8.40
2022-11-08T04:15:01.709Z,8.50
2022-11-08T04:17:43.849Z,8.40
2022-11-08T04:20:27.557Z,8.40
2022-11-08T04:22:57.538Z,8.40
2022-11-08T04:25:34.932Z,8.40
2022-11-08T04:28:05.214Z,8.50
2022-11-08T04:30:35.397Z,8.90
2022-11-08T04:33:07.077Z,8.60
2022-11-08T04:35:37.510Z,8.90
2022-11-08T04:38:07.395Z,8.70
2022-11-08T04:40:40.189Z,8.60
2022-11-08T04:43:10.397Z,8.90
2022-11-08T04:45:41.147Z,8.90
2022-11-08T04:48:11.091Z,8.80
2022-11-08T04:50:41.248Z,8.60
2022-11-08T04:53:11.173Z,8.60
2022-11-08T04:55:45.776Z,8.80
2022-11-08T04:58:16.959Z,8.60
2022-11-08T05:00:47.645Z,8.60
2022-11-08T05:03:17.647Z,8.80
2022-11-08T05:05:49.714Z,8.50
2022-11-08T05:08:20.192Z,8.50
2022-11-08T05:10:53.374Z,8.80
2022-11-08T05:13:23.281Z,8.50
2022-11-08T05:15:53.827Z,8.50
2022-11-08T05:18:23.789Z,8.60
2022-11-08T05:21:09.449Z,8.90
2022-11-08T05:23:39.397Z,8.60
2022-11-08T05:26:12.067Z,8.60
2022-11-08T05:28:43.141Z,8.80
2022-11-08T05:31:14.395Z,8.60
2022-11-08T05:33:45.151Z,8.50
2022-11-08T05:36:22.027Z,8.80
2022-11-08T05:38:58.118Z,8.50
2022-11-08T05:41:38.823Z,8.80
2022-11-08T05:44:10.282Z,8.80
2022-11-08T05:46:40.345Z,8.90
2022-11-08T05:49:10.908Z,8.60
2022-11-08T05:51:41.301Z,8.70
2022-11-08T05:54:13.443Z,8.60
2022-11-08T05:56:47.824Z,8.80
2022-11-08T05:59:18.211Z,8.60
2022-11-08T06:01:48.217Z,8.60
2022-11-08T06:04:18.206Z,8.60
2022-11-08T06:06:48.218Z,8.60
2022-11-08T06:09:18.168Z,8.80
2022-11-08T06:11:50.687Z,8.60
2022-11-08T06:14:21.053Z,8.60
2022-11-08T06:16:51.215Z,8.60
2022-11-08T06:19:21.854Z,8.50
2022-11-08T06:21:51.793Z,8.40
2022-11-08T06:24:22.028Z,8.40
2022-11-08T06:26:54.615Z,8.60
2022-11-08T06:29:25.258Z,8.50
2022-11-08T06:31:55.210Z,8.40
2022-11-08T06:34:26.337Z,8.40
2022-11-08T06:36:59.425Z,8.60
2022-11-08T06:39:29.755Z,8.50
2022-11-08T06:42:02.955Z,8.50
2022-11-08T06:44:33.136Z,8.60
2022-11-08T06:47:03.093Z,8.60
2022-11-08T06:49:33.028Z,8.60
2022-11-08T06:52:02.981Z,8.80
2022-11-08T06:54:33.619Z,8.60
2022-11-08T06:57:06.515Z,8.70
2022-11-08T06:59:36.762Z,8.70
2022-11-08T07:02:06.929Z,8.70
2022-11-08T07:04:37.110Z,8.90
2022-11-08T07:07:07.176Z,8.90
2022-11-08T07:09:38.161Z,8.80
2022-11-08T07:12:10.963Z,8.90
2022-11-08T07:14:42.221Z,8.90
2022-11-08T07:17:12.250Z,9.00
2022-11-08T07:19:43.256Z,9.10
2022-11-08T07:22:14.662Z,9.10
2022-11-08T07:24:45.380Z,9.10
2022-11-08T07:27:17.925Z,9.20
2022-11-08T07:29:48.484Z,9.20
2022-11-08T07:32:18.766Z,9.30
2022-11-08T07:34:49.498Z,9.30
2022-11-08T07:37:19.450Z,9.30
2022-11-08T07:39:50.059Z,9.40
2022-11-08T07:42:24.809Z,9.40
2022-11-08T07:45:08.939Z,9.40
2022-11-08T07:47:39.140Z,9.40
2022-11-08T07:50:10.982Z,9.50
2022-11-08T07:52:40.970Z,9.60
2022-11-08T07:55:11.448Z,9.70
2022-11-08T07:57:44.311Z,9.80
2022-11-08T08:00:15.486Z,10.10
2022-11-08T08:02:45.452Z,9.90
2022-11-08T08:05:16.123Z,10.00
2022-11-08T08:07:46.080Z,10.00
2022-11-08T08:10:16.489Z,10.00
2022-11-08T08:12:49.341Z,10.10
2022-11-08T08:15:19.846Z,10.40
2022-11-08T08:17:50.574Z,10.30
2022-11-08T08:20:22.552Z,10.30
2022-11-08T08:22:54.128Z,10.40
2022-11-08T08:25:26.818Z,10.50
2022-11-08T08:28:01.922Z,10.60
2022-11-08T08:30:34.786Z,10.70
2022-11-08T08:33:28.352Z,10.80
2022-11-08T08:35:58.596Z,10.70
2022-11-08T08:38:28.712Z,10.70
2022-11-08T08:40:59.792Z,10.80
2022-11-08T08:43:33.773Z,10.80
2022-11-08T08:46:06.403Z,10.90
2022-11-08T08:48:38.920Z,11.00
2022-11-08T08:51:09.670Z,11.10
2022-11-08T08:53:39.862Z,11.10
2022-11-08T08:56:10.611Z,11.30
2022-11-08T08:58:43.596Z,11.40
2022-11-08T09:04:06.968Z,11.60
2022-11-08T09:06:37.003Z,11.70
2022-11-08T09:09:08.255Z,11.80
2022-11-08T09:11:38.507Z,11.80
2022-11-08T09:14:12.048Z,11.90
2022-11-08T09:16:42.026Z,11.90
2022-11-08T09:19:12.733Z,11.90
2022-11-08T09:21:42.734Z,12.00
2022-11-08T09:24:13.204Z,12.00
2022-11-08T09:26:44.882Z,11.90
2022-11-08T09:29:17.910Z,11.90
2022-11-08T09:31:47.850Z,11.90
2022-11-08T09:34:21.584Z,11.90
2022-11-08T09:36:52.047Z,12.00
2022-11-08T09:39:25.154Z,12.00
2022-11-08T09:42:10.287Z,12.00
2022-11-08T09:45:10.002Z,11.90
2022-11-08T09:47:42.410Z,12.00
2022-11-08T09:50:20.656Z,12.00
2022-11-08T09:52:56.724Z,12.10
2022-11-08T09:55:33.573Z,12.00
2022-11-08T09:58:10.746Z,12.00
2022-11-08T10:00:44.336Z,12.10
2022-11-08T10:03:18.190Z,12.00
2022-11-08T10:06:13.868Z,11.90
2022-11-08T10:08:52.995Z,12.00
2022-11-08T10:11:33.268Z,12.10
2022-11-08T10:14:21.464Z,12.10
2022-11-08T10:17:08.177Z,12.20
2022-11-08T10:20:06.341Z,12.30
2022-11-08T10:22:47.083Z,12.40
2022-11-08T10:25:26.847Z,12.40
2022-11-08T10:27:59.229Z,12.50
2022-11-08T10:30:38.950Z,12.50
2022-11-08T10:33:19.125Z,12.40
2022-11-08T10:35:56.410Z,12.30
2022-11-08T10:38:37.183Z,12.30
2022-11-08T10:41:16.108Z,12.10
2022-11-08T10:43:51.955Z,12.10
2022-11-08T10:46:37.922Z,12.10
2022-11-08T10:49:23.160Z,12.00
2022-11-08T10:51:55.909Z,12.20
2022-11-08T10:54:45.504Z,12.20
2022-11-08T10:57:17.619Z,12.30
2022-11-08T10:59:49.663Z,12.30
2022-11-08T11:02:30.336Z,12.50
2022-11-08T11:05:33.236Z,12.60
2022-11-08T11:08:17.292Z,12.80
2022-11-08T11:10:49.624Z,12.90
2022-11-08T11:13:25.107Z,12.80
2022-11-08T11:16:03.174Z,12.70
2022-11-08T11:18:36.246Z,12.60
2022-11-08T11:21:11.842Z,12.60
2022-11-08T11:23:47.544Z,12.70
2022-11-08T11:26:25.519Z,12.60
2022-11-08T11:29:10.687Z,12.70
2022-11-08T11:31:42.812Z,12.70
2022-11-08T11:34:48.942Z,12.80
2022-11-08T11:37:32.478Z,12.70
2022-11-08T11:40:10.551Z,12.80
2022-11-08T11:42:47.461Z,13.10
2022-11-08T11:45:27.040Z,13.10
2022-11-08T11:47:59.741Z,13.20
2022-11-08T11:50:38.207Z,13.10
2022-11-08T11:53:20.089Z,13.00
2022-11-08T11:56:15.371Z,13.00
2022-11-08T11:59:00.652Z,13.00
2022-11-08T12:01:44.391Z,13.20
2022-11-08T12:04:44.634Z,13.20
2022-11-08T12:07:20.768Z,13.20
2022-11-08T12:10:02.033Z,13.30
2022-11-08T12:12:44.542Z,13.30
2022-11-08T12:15:23.414Z,13.50
2022-11-08T12:18:36.605Z,13.30
2022-11-08T12:21:13.832Z,13.20
2022-11-08T12:23:58.816Z,13.30
2022-11-08T12:26:38.168Z,13.10
2022-11-08T12:29:28.447Z,13.40
2022-11-08T12:32:16.255Z,13.60
2022-11-08T12:34:57.320Z,13.60
2022-11-08T12:37:43.589Z,13.60
2022-11-08T12:40:22.846Z,13.50
2022-11-08T12:43:08.745Z,13.30
2022-11-08T12:45:48.776Z,13.30
2022-11-08T12:48:33.185Z,13.40
2022-11-08T12:51:08.926Z,13.40
2022-11-08T12:53:56.335Z,13.50
2022-11-08T12:56:31.639Z,13.50
2022-11-08T12:59:07.521Z,13.50
2022-11-08T13:01:40.328Z,13.50
2022-11-08T13:04:33.665Z,13.50
2022-11-08T13:07:10.138Z,13.40
2022-11-08T13:09:47.045Z,13.40
2022-11-08T13:12:27.816Z,13.10
2022-11-08T13:15:03.217Z,13.20
2022-11-08T13:17:35.853Z,13.30
2022-11-08T13:20:10.927Z,13.30
2022-11-08T13:22:47.781Z,13.20
2022-11-08T13:25:39.679Z,13.20
2022-11-08T13:28:41.107Z,13.20
2022-11-08T13:31:33.982Z,13.20
2022-11-08T13:34:16.570Z,13.30
2022-11-08T13:37:01.826Z,13.50
2022-11-08T13:39:58.154Z,13.50
2022-11-08T13:42:43.356Z,13.20
2022-11-08T13:45:34.191Z,13.20
2022-11-08T13:48:37.355Z,13.20
2022-11-08T13:51:27.385Z,13.30
2022-11-08T13:54:03.043Z,13.40
2022-11-08T13:56:49.282Z,13.20
2022-11-08T13:59:54.866Z,13.10
2022-11-08T14:02:38.354Z,13.00
2022-11-08T14:05:31.223Z,12.90
2022-11-08T14:08:26.127Z,12.70
2022-11-08T14:11:24.065Z,12.70
2022-11-08T14:14:08.757Z,12.60
2022-11-08T14:16:50.067Z,12.60
2022-11-08T14:19:24.401Z,12.60
2022-11-08T14:22:00.106Z,12.60
2022-11-08T14:24:34.591Z,12.50
2022-11-08T14:27:04.677Z,12.50
2022-11-08T14:29:36.188Z,12.40
2022-11-08T14:32:20.328Z,12.40
2022-11-08T14:34:53.595Z,12.50
2022-11-08T14:37:29.008Z,12.40
2022-11-08T14:40:03.263Z,12.40
2022-11-08T14:42:33.397Z,12.40
2022-11-08T14:45:04.559Z,12.30
2022-11-08T14:47:38.650Z,12.30
2022-11-08T14:50:20.882Z,12.30
2022-11-08T14:52:53.751Z,12.30
2022-11-08T14:55:29.373Z,12.20
2022-11-08T14:58:00.251Z,12.10
2022-11-08T15:00:30.999Z,12.10
2022-11-08T15:03:10.117Z,12.00
2022-11-08T15:05:47.111Z,12.10
2022-11-08T15:08:30.110Z,12.10
2022-11-08T15:11:04.700Z,12.10
2022-11-08T15:13:41.952Z,12.00
2022-11-08T15:16:12.627Z,11.90
2022-11-08T15:18:45.043Z,11.90
2022-11-08T15:21:29.504Z,11.90
2022-11-08T15:24:18.381Z,11.80
2022-11-08T15:27:03.912Z,11.80
2022-11-08T15:29:53.000Z,11.80
2022-11-08T15:32:24.885Z,11.70
2022-11-08T15:34:59.679Z,11.70
2022-11-08T15:37:38.944Z,11.60
2022-11-08T15:40:22.359Z,11.60
2022-11-08T15:42:54.595Z,11.50
2022-11-08T15:45:32.723Z,11.60
2022-11-08T15:48:12.980Z,11.60
2022-11-08T15:50:43.632Z,11.60
2022-11-08T15:53:13.976Z,11.50
2022-11-08T15:55:52.273Z,11.50
2022-11-08T15:58:33.235Z,11.50
2022-11-08T16:01:04.840Z,11.60
2022-11-08T16:03:36.391Z,11.60
2022-11-08T16:06:06.849Z,11.60
2022-11-08T16:08:36.863Z,11.60
2022-11-08T16:11:16.273Z,11.60
2022-11-08T16:13:46.238Z,11.60
2022-11-08T16:16:20.642Z,11.50
2022-11-08T16:18:50.808Z,11.50
2022-11-08T16:21:21.510Z,11.50
2022-11-08T16:23:51.458Z,11.50
2022-11-08T16:26:27.837Z,11.50
2022-11-08T16:28:58.116Z,11.50
2022-11-08T16:31:28.032Z,11.40
2022-11-08T16:33:58.143Z,11.40
2022-11-08T16:36:29.505Z,11.40
2022-11-08T16:39:03.568Z,11.50
2022-11-08T16:41:42.512Z,11.40
2022-11-08T16:44:14.465Z,11.40
2022-11-08T16:46:44.938Z,11.40
2022-11-08T16:49:24.212Z,11.40
2022-11-08T16:51:59.370Z,11.50
2022-11-08T16:54:30.566Z,11.40
2022-11-08T16:57:28.616Z,11.40
2022-11-08T16:59:54.397Z,11.40
2022-11-08T17:02:32.074Z,11.30
2022-11-08T17:05:02.850Z,11.40
2022-11-08T17:07:32.770Z,11.40
2022-11-08T17:10:03.514Z,11.40
2022-11-08T17:12:36.012Z,11.40
2022-11-08T17:15:13.026Z,11.40
2022-11-08T17:17:45.335Z,11.50
2022-11-08T17:20:18.250Z,11.40
2022-11-08T17:22:50.717Z,11.40
2022-11-08T17:25:24.933Z,11.40
2022-11-08T17:27:57.541Z,11.40
2022-11-08T17:30:28.325Z,11.40
2022-11-08T17:32:58.328Z,11.30
2022-11-08T17:35:28.673Z,11.40
2022-11-08T17:37:58.957Z,11.30
2022-11-08T17:40:29.568Z,11.40
2022-11-08T17:43:02.134Z,11.40
2022-11-08T17:45:32.105Z,11.30
2022-11-08T17:48:02.008Z,11.40
2022-11-08T17:50:33.045Z,11.40
2022-11-08T17:53:03.953Z,11.40
2022-11-08T17:55:34.540Z,11.40
2022-11-08T17:58:07.143Z,11.40
2022-11-08T18:00:38.100Z,11.30
2022-11-08T18:03:12.988Z,11.30
2022-11-08T18:05:43.217Z,11.30
2022-11-08T18:08:13.802Z,11.30
2022-11-08T18:10:48.154Z,11.30
2022-11-08T18:13:21.668Z,11.30
2022-11-08T18:15:52.454Z,11.30
2022-11-08T18:18:27.864Z,11.30
2022-11-08T18:20:58.471Z,11.30
2022-11-08T18:23:28.404Z,11.20
2022-11-08T18:25:59.045Z,11.30
2022-11-08T18:28:31.706Z,11.30
2022-11-08T18:31:08.505Z,11.30
2022-11-08T18:33:39.545Z,11.30
2022-11-08T18:36:13.612Z,11.30
2022-11-08T18:38:45.739Z,11.20
2022-11-08T18:41:18.739Z,11.30
2022-11-08T18:43:52.067Z,11.30
2022-11-08T18:46:24.054Z,11.20
2022-11-08T18:48:55.260Z,11.20
2022-11-08T18:51:26.367Z,11.20
2022-11-08T18:53:59.691Z,11.20
2022-11-08T18:56:36.602Z,11.20
2022-11-08T18:59:12.927Z,11.20
2022-11-08T19:01:54.051Z,11.20
2022-11-08T19:04:24.730Z,11.30
2022-11-08T19:06:55.106Z,11.30
2022-11-08T19:09:25.336Z,11.30
2022-11-08T19:12:04.597Z,11.30
2022-11-08T19:14:39.415Z,11.30
2022-11-08T19:17:16.836Z,11.30
2022-11-08T19:19:47.643Z,11.30
2022-11-08T19:22:17.656Z,11.30
2022-11-08T19:24:50.696Z,11.30
2022-11-08T19:27:20.955Z,11.20
2022-11-08T19:29:53.576Z,11.30
2022-11-08T19:32:23.514Z,11.30
2022-11-08T19:34:55.186Z,11.30
2022-11-08T19:37:25.523Z,11.20
2022-11-08T19:39:56.236Z,11.20
2022-11-08T19:42:26.196Z,11.30
2022-11-08T19:44:59.506Z,11.30
2022-11-08T19:47:29.411Z,11.30
2022-11-08T19:50:00.474Z,11.30
2022-11-08T19:52:32.863Z,11.40
2022-11-08T19:55:07.145Z,11.50
2022-11-08T19:57:37.053Z,11.50
2022-11-08T20:00:16.746Z,11.50
2022-11-08T20:02:50.463Z,11.50
2022-11-08T20:05:21.187Z,11.50
2022-11-08T20:07:51.673Z,11.50
2022-11-08T20:10:22.060Z,11.40
2022-11-08T20:12:52.615Z,11.50
2022-11-08T20:15:25.790Z,11.50
2022-11-08T20:17:56.527Z,11.50
2022-11-08T20:20:26.846Z,11.50
2022-11-08T20:22:56.913Z,11.50
2022-11-08T20:25:27.039Z,11.50
2022-11-08T20:27:57.788Z,11.50
2022-11-08T20:30:31.415Z,11.50
2022-11-08T20:33:01.435Z,11.50
2022-11-08T20:35:31.898Z,11.40
2022-11-08T20:38:01.946Z,11.40
2022-11-08T20:40:31.885Z,11.40
2022-11-08T20:43:01.967Z,11.40
2022-11-08T20:45:34.557Z,11.50
2022-11-08T20:48:04.460Z,11.50
2022-11-08T20:50:36.688Z,11.50
2022-11-08T20:53:06.822Z,11.50
2022-11-08T20:55:36.978Z,11.50
2022-11-08T20:58:06.907Z,11.40
2022-11-08T21:00:57.221Z,11.40
2022-11-08T21:03:29.690Z,11.40
2022-11-08T21:06:01.187Z,11.40
2022-11-08T21:11:23.022Z,11.40
2022-11-08T21:13:52.916Z,11.40
2022-11-08T21:16:46.967Z,11.40
2022-11-08T21:19:15.869Z,11.40
2022-11-08T21:21:46.840Z,11.30
2022-11-08T21:24:17.177Z,11.20
2022-11-08T21:26:47.174Z,11.30
2022-11-08T21:29:17.393Z,11.30
2022-11-08T21:31:50.459Z,11.30
2022-11-08T21:34:21.398Z,11.30
2022-11-08T21:36:51.827Z,11.30
2022-11-08T21:39:21.860Z,11.40
2022-11-08T21:41:51.767Z,11.40
2022-11-08T21:44:23.137Z,11.40
2022-11-08T21:46:56.044Z,11.40
2022-11-08T21:49:26.073Z,11.50
2022-11-08T21:51:56.306Z,11.50
2022-11-08T21:54:26.355Z,11.50
2022-11-08T21:56:57.145Z,11.40
2022-11-08T21:59:27.087Z,11.50
2022-11-08T22:02:04.116Z,11.50
2022-11-08T22:04:34.395Z,11.50
2022-11-08T22:07:05.164Z,11.50
2022-11-08T22:09:35.116Z,11.40
2022-11-08T22:12:07.117Z,11.50
2022-11-08T22:14:37.885Z,11.50
2022-11-08T22:17:10.868Z,11.50
2022-11-08T22:19:41.478Z,11.40
2022-11-08T22:22:12.565Z,11.30
2022-11-08T22:24:42.852Z,11.40
2022-11-08T22:27:13.400Z,11.40
2022-11-08T22:29:43.274Z,11.40
2022-11-08T22:32:16.313Z,11.40
2022-11-08T22:34:46.200Z,11.40
2022-11-08T22:37:16.925Z,11.40
2022-11-08T22:39:47.219Z,11.30
2022-11-08T22:42:18.921Z,11.50
2022-11-08T22:44:49.042Z,11.50
2022-11-08T22:47:22.206Z,11.50
2022-11-08T22:49:52.887Z,11.60
2022-11-08T22:52:23.001Z,11.60
2022-11-08T22:54:52.865Z,11.60
2022-11-08T22:57:23.396Z,11.60
2022-11-08T22:59:53.817Z,11.60
2022-11-08T23:02:32.735Z,11.60
2022-11-08T23:05:03.069Z,11.60
2022-11-08T23:07:34.042Z,11.60
2022-11-08T23:10:03.924Z,11.60
2022-11-08T23:12:47.044Z,11.60
2022-11-08T23:15:30.783Z,11.60
2022-11-08T23:18:04.183Z,11.70
2022-11-08T23:20:48.423Z,11.60
2022-11-08T23:23:31.005Z,11.60
2022-11-08T23:26:01.694Z,11.60
2022-11-08T23:28:44.024Z,11.60
2022-11-08T23:31:31.123Z,11.50
2022-11-08T23:34:04.013Z,11.60
2022-11-08T23:36:34.800Z,11.60
2022-11-08T23:39:04.677Z,11.60
2022-11-08T23:41:48.013Z,11.60
2022-11-08T23:44:27.675Z,11.60
2022-11-08T23:47:00.042Z,11.70
2022-11-08T23:49:32.619Z,11.60
2022-11-08T23:52:03.315Z,11.60
2022-11-08T23:54:33.420Z,11.60
2022-11-08T23:57:03.832Z,11.60
2022-11-08T23:59:33.736Z,11.60
